createdAt,value
2023-02-15T00:01:49.107Z,18.25
2023-02-15T00:04:18.747Z,18.73
2023-02-15T00:06:47.843Z,18.88
2023-02-15T00:09:15.762Z,19.38
2023-02-15T00:11:50.716Z,19.52
2023-02-15T00:14:20.661Z,19.38
2023-02-15T00:16:49.573Z,20.70
2023-02-15T00:19:19.197Z,19.85
2023-02-15T00:21:48.700Z,20.92
2023-02-15T00:24:18.868Z,19.60
2023-02-15T00:26:47.092Z,19.92
2023-02-15T00:29:16.545Z,19.40
2023-02-15T00:31:44.749Z,20.42
2023-02-15T00:34:13.995Z,19.85
2023-02-15T00:36:41.958Z,20.02
2023-02-15T00:39:11.399Z,20.35
2023-02-15T00:41:39.457Z,21.20
2023-02-15T00:44:07.411Z,21.08
2023-02-15T00:46:35.523Z,20.58
2023-02-15T00:49:03.610Z,21.02
2023-02-15T00:51:31.837Z,20.08
2023-02-15T00:53:59.599Z,20.58
2023-02-15T00:56:29.798Z,20.60
2023-02-15T00:58:57.892Z,20.00
2023-02-15T01:01:27.019Z,20.92
2023-02-15T01:03:55.156Z,21.42
2023-02-15T01:06:22.941Z,21.70
2023-02-15T01:08:50.669Z,21.00
2023-02-15T01:11:23.036Z,20.93
2023-02-15T01:13:53.702Z,20.20
2023-02-15T01:16:22.213Z,21.17
2023-02-15T01:18:50.292Z,21.13
2023-02-15T01:21:19.762Z,21.30
2023-02-15T01:23:47.821Z,20.63
2023-02-15T01:26:16.348Z,21.30
2023-02-15T01:28:44.083Z,19.50
2023-02-15T01:31:15.480Z,21.00
2023-02-15T01:33:43.773Z,20.25
2023-02-15T01:36:11.944Z,20.08
2023-02-15T01:38:40.827Z,20.65
2023-02-15T01:41:24.989Z,22.38
2023-02-15T01:43:54.580Z,21.33
2023-02-15T01:46:27.310Z,22.25
2023-02-15T01:48:59.253Z,20.75
2023-02-15T01:51:29.858Z,22.40
2023-02-15T01:54:00.855Z,21.23
2023-02-15T01:56:31.782Z,22.17
2023-02-15T01:59:02.072Z,22.42
2023-02-15T02:01:31.213Z,22.17
2023-02-15T02:04:02.046Z,22.02
2023-02-15T02:06:30.183Z,22.20
2023-02-15T02:08:58.588Z,22.30
2023-02-15T02:11:27.044Z,22.42
2023-02-15T02:13:55.875Z,21.10
2023-02-15T02:16:26.002Z,22.42
2023-02-15T02:19:05.284Z,22.57
2023-02-15T02:21:51.591Z,20.65
2023-02-15T02:24:34.739Z,20.63
2023-02-15T02:27:20.842Z,21.35
2023-02-15T02:30:11.443Z,21.52
2023-02-15T02:32:54.265Z,21.50
2023-02-15T02:35:26.653Z,21.73
2023-02-15T02:38:04.441Z,20.73
2023-02-15T02:40:38.165Z,19.92
2023-02-15T02:43:11.179Z,20.88
2023-02-15T02:45:45.432Z,22.27
2023-02-15T02:48:17.537Z,21.58
2023-02-15T02:50:45.217Z,21.77
2023-02-15T02:53:13.206Z,25.52
2023-02-15T02:55:43.318Z,22.15
2023-02-15T02:58:13.902Z,21.92
2023-02-15T03:00:44.940Z,20.35
2023-02-15T03:03:16.547Z,22.17
2023-02-15T03:05:47.244Z,21.25
2023-02-15T03:08:22.668Z,20.90
2023-02-15T03:10:51.052Z,22.00
2023-02-15T03:13:18.934Z,19.67
2023-02-15T03:16:04.609Z,24.67
2023-02-15T03:18:36.544Z,32.35
2023-02-15T03:21:05.364Z,45.88
2023-02-15T03:23:34.762Z,29.10
2023-02-15T03:26:04.427Z,23.20
2023-02-15T03:28:37.069Z,21.60
2023-02-15T03:31:07.458Z,38.35
2023-02-15T03:33:38.282Z,40.10
2023-02-15T03:36:10.717Z,24.33
2023-02-15T03:38:42.931Z,26.40
2023-02-15T03:41:11.482Z,22.17
2023-02-15T03:43:45.444Z,21.98
2023-02-15T03:46:17.580Z,19.45
2023-02-15T03:48:50.292Z,19.90
2023-02-15T03:51:39.059Z,24.37
2023-02-15T03:54:09.946Z,24.33
2023-02-15T03:56:38.604Z,23.58
2023-02-15T03:59:24.246Z,23.57
2023-02-15T04:02:00.282Z,20.70
2023-02-15T04:04:36.060Z,20.55
2023-02-15T04:07:05.669Z,22.88
2023-02-15T04:09:51.151Z,22.75
2023-02-15T04:12:19.132Z,21.15
2023-02-15T04:15:04.664Z,21.23
2023-02-15T04:17:32.323Z,21.48
2023-02-15T04:20:18.861Z,21.17
2023-02-15T04:23:04.270Z,22.10
2023-02-15T04:25:32.253Z,23.15
2023-02-15T04:27:59.951Z,21.10
2023-02-15T04:30:28.504Z,20.02
2023-02-15T04:32:58.071Z,44.10
2023-02-15T04:35:27.800Z,36.10
2023-02-15T04:37:56.868Z,25.88
2023-02-15T04:40:24.662Z,21.88
2023-02-15T04:42:52.326Z,20.75
2023-02-15T04:45:20.017Z,20.08
2023-02-15T04:47:48.019Z,20.88
2023-02-15T04:50:15.961Z,21.33
2023-02-15T04:52:45.343Z,19.63
2023-02-15T04:55:13.064Z,20.45
2023-02-15T04:57:40.769Z,19.15
2023-02-15T05:00:10.674Z,21.03
2023-02-15T05:02:38.718Z,20.00
2023-02-15T05:05:07.333Z,20.58
2023-02-15T05:07:35.047Z,20.85
2023-02-15T05:10:04.403Z,20.53
2023-02-15T05:12:32.200Z,42.95
2023-02-15T05:14:59.843Z,39.23
2023-02-15T05:17:27.616Z,22.90
2023-02-15T05:19:55.292Z,21.63
2023-02-15T05:22:22.958Z,28.70
2023-02-15T05:25:08.449Z,28.10
2023-02-15T05:27:55.166Z,22.30
2023-02-15T05:30:23.013Z,22.15
2023-02-15T05:32:50.894Z,65.00
2023-02-15T05:35:19.006Z,60.23
2023-02-15T05:37:46.653Z,25.47
2023-02-15T05:40:14.483Z,24.90
2023-02-15T05:42:43.770Z,20.25
2023-02-15T05:45:11.689Z,20.58
2023-02-15T05:47:39.357Z,20.92
2023-02-15T05:50:08.353Z,20.90
2023-02-15T05:52:36.300Z,22.08
2023-02-15T05:55:05.179Z,20.70
2023-02-15T05:57:33.065Z,20.80
2023-02-15T06:00:02.418Z,20.08
2023-02-15T06:02:30.153Z,21.33
2023-02-15T06:04:57.828Z,19.70
2023-02-15T06:07:25.477Z,20.10
2023-02-15T06:09:53.400Z,21.08
2023-02-15T06:12:21.050Z,22.40
2023-02-15T06:14:48.704Z,21.35
2023-02-15T06:17:18.255Z,20.95
2023-02-15T06:19:46.053Z,19.98
2023-02-15T06:22:14.984Z,20.67
2023-02-15T06:24:43.796Z,30.75
2023-02-15T06:27:11.736Z,49.33
2023-02-15T06:29:39.472Z,22.37
2023-02-15T06:32:07.749Z,20.17
2023-02-15T06:34:36.902Z,20.23
2023-02-15T06:37:04.670Z,20.08
2023-02-15T06:39:32.365Z,19.83
2023-02-15T06:42:00.264Z,20.13
2023-02-15T06:44:27.985Z,20.50
2023-02-15T06:46:55.690Z,19.33
2023-02-15T06:49:23.365Z,19.40
2023-02-15T06:51:52.447Z,21.05
2023-02-15T06:54:20.459Z,20.17
2023-02-15T06:56:48.144Z,20.30
2023-02-15T06:59:15.845Z,19.70
2023-02-15T07:01:43.545Z,18.37
2023-02-15T07:04:11.697Z,20.02
2023-02-15T07:06:39.397Z,19.88
2023-02-15T07:09:08.694Z,20.20
2023-02-15T07:11:53.899Z,18.75
2023-02-15T07:14:23.686Z,19.60
2023-02-15T07:16:51.391Z,20.40
2023-02-15T07:19:19.133Z,21.83
2023-02-15T07:21:47.591Z,21.58
2023-02-15T07:24:16.708Z,20.63
2023-02-15T07:26:44.362Z,19.98
2023-02-15T07:29:12.178Z,20.73
2023-02-15T07:31:40.001Z,22.17
2023-02-15T07:34:08.398Z,21.33
2023-02-15T07:36:36.520Z,21.08
2023-02-15T07:39:04.373Z,20.30
2023-02-15T07:41:33.713Z,20.58
2023-02-15T07:44:01.625Z,21.17
2023-02-15T07:46:29.345Z,21.35
2023-02-15T07:48:57.010Z,20.48
2023-02-15T07:51:24.731Z,20.95
2023-02-15T07:53:52.823Z,20.55
2023-02-15T07:56:20.857Z,20.75
2023-02-15T07:58:52.923Z,21.77
2023-02-15T08:01:21.958Z,20.63
2023-02-15T08:03:50.095Z,20.23
2023-02-15T08:06:18.437Z,21.40
2023-02-15T08:08:46.283Z,20.25
2023-02-15T08:11:30.183Z,20.37
2023-02-15T08:14:03.347Z,22.67
2023-02-15T08:16:33.767Z,22.00
2023-02-15T08:19:03.744Z,20.25
2023-02-15T08:21:31.849Z,20.53
2023-02-15T08:24:00.175Z,22.20
2023-02-15T08:26:28.806Z,22.08
2023-02-15T08:28:56.856Z,22.58
2023-02-15T08:31:26.699Z,22.30
2023-02-15T08:33:55.615Z,21.90
2023-02-15T08:36:25.240Z,23.05
2023-02-15T08:38:53.118Z,22.95
2023-02-15T08:41:22.531Z,23.88
2023-02-15T08:43:53.173Z,21.77
2023-02-15T08:46:21.106Z,22.65
2023-02-15T08:48:50.457Z,23.20
2023-02-15T08:51:19.969Z,23.33
2023-02-15T08:53:50.376Z,23.63
2023-02-15T08:56:18.518Z,24.48
2023-02-15T08:58:46.693Z,23.90
2023-02-15T09:01:18.805Z,23.83
2023-02-15T09:03:47.331Z,24.52
2023-02-15T09:06:16.793Z,25.52
2023-02-15T09:08:44.630Z,25.98
2023-02-15T09:11:14.034Z,25.98
2023-02-15T09:13:42.081Z,28.33
2023-02-15T09:16:11.334Z,29.73
2023-02-15T09:18:40.630Z,29.53
2023-02-15T09:21:10.038Z,30.02
2023-02-15T09:23:39.152Z,31.05
2023-02-15T09:26:08.338Z,30.63
2023-02-15T09:28:36.745Z,30.33
2023-02-15T09:31:09.614Z,31.33
2023-02-15T09:33:37.920Z,32.45
2023-02-15T09:36:06.543Z,32.75
2023-02-15T09:38:34.372Z,33.03
2023-02-15T09:41:23.705Z,30.17
2023-02-15T09:43:59.384Z,28.50
2023-02-15T09:46:36.983Z,30.27
2023-02-15T09:49:12.515Z,30.33
2023-02-15T09:51:53.842Z,29.15
2023-02-15T09:54:41.914Z,30.38
2023-02-15T09:57:18.084Z,28.27
2023-02-15T09:59:52.528Z,29.40
2023-02-15T10:02:36.852Z,28.90
2023-02-15T10:05:13.533Z,28.05
2023-02-15T10:07:57.538Z,26.50
2023-02-15T10:10:29.627Z,26.83
2023-02-15T10:13:10.464Z,25.40
2023-02-15T10:15:53.243Z,24.38
2023-02-15T10:18:36.889Z,23.50
2023-02-15T10:21:11.069Z,23.73
2023-02-15T10:23:49.464Z,22.17
2023-02-15T10:26:20.746Z,20.65
2023-02-15T10:28:52.244Z,22.27
2023-02-15T10:31:26.620Z,20.15
2023-02-15T10:34:06.265Z,21.92
2023-02-15T10:36:46.027Z,21.00
2023-02-15T10:39:22.737Z,20.45
2023-02-15T10:41:57.727Z,20.90
2023-02-15T10:44:37.695Z,21.27
2023-02-15T10:47:25.194Z,20.27
2023-02-15T10:50:08.720Z,19.97
2023-02-15T10:52:45.617Z,19.98
2023-02-15T10:55:19.193Z,20.23
2023-02-15T10:57:54.106Z,19.45
2023-02-15T11:00:26.984Z,19.13
2023-02-15T11:03:06.694Z,19.08
2023-02-15T11:05:43.609Z,18.45
2023-02-15T11:08:13.761Z,18.67
2023-02-15T11:10:45.149Z,18.47
2023-02-15T11:13:16.428Z,19.10
2023-02-15T11:15:49.362Z,19.48
2023-02-15T11:18:21.436Z,19.70
2023-02-15T11:20:55.579Z,19.02
2023-02-15T11:23:23.840Z,18.70
2023-02-15T11:25:58.341Z,20.33
2023-02-15T11:28:31.626Z,18.60
2023-02-15T11:31:04.807Z,18.97
2023-02-15T11:33:37.201Z,19.10
2023-02-15T11:36:09.001Z,18.88
2023-02-15T11:38:37.486Z,18.58
2023-02-15T11:41:07.850Z,18.73
2023-02-15T11:43:39.097Z,19.15
2023-02-15T11:46:12.198Z,18.40
2023-02-15T11:48:40.536Z,19.05
2023-02-15T11:51:10.925Z,18.38
2023-02-15T11:53:39.850Z,18.88
2023-02-15T11:56:15.789Z,18.27
2023-02-15T11:58:46.141Z,17.35
2023-02-15T12:01:18.333Z,18.63
2023-02-15T12:03:48.893Z,18.60
2023-02-15T12:06:22.430Z,17.67
2023-02-15T12:08:57.537Z,18.92
2023-02-15T12:11:30.913Z,17.42
2023-02-15T12:14:00.789Z,17.70
2023-02-15T12:16:31.482Z,17.67
2023-02-15T12:19:00.608Z,17.27
2023-02-15T12:21:31.821Z,17.75
2023-02-15T12:24:04.776Z,17.88
2023-02-15T12:26:34.214Z,18.07
2023-02-15T12:29:03.650Z,17.35
2023-02-15T12:31:39.313Z,17.95
2023-02-15T12:34:12.839Z,17.92
2023-02-15T12:36:47.487Z,17.93
2023-02-15T12:39:23.958Z,17.55
2023-02-15T12:42:02.270Z,17.35
2023-02-15T12:44:31.261Z,16.75
2023-02-15T12:47:02.195Z,16.75
2023-02-15T12:49:31.472Z,16.55
2023-02-15T12:52:00.859Z,17.35
2023-02-15T12:54:37.550Z,16.23
2023-02-15T12:57:25.700Z,16.60
2023-02-15T12:59:55.697Z,16.23
2023-02-15T13:02:27.880Z,17.15
2023-02-15T13:04:56.250Z,16.45
2023-02-15T13:07:24.439Z,16.13
2023-02-15T13:09:52.488Z,16.13
2023-02-15T13:12:24.306Z,16.50
2023-02-15T13:14:53.847Z,16.20
2023-02-15T13:17:27.946Z,16.57
2023-02-15T13:19:56.200Z,17.65
2023-02-15T13:22:25.855Z,16.05
2023-02-15T13:24:55.774Z,16.40
2023-02-15T13:27:25.030Z,16.10
2023-02-15T13:29:55.348Z,16.98
2023-02-15T13:32:31.394Z,16.65
2023-02-15T13:35:00.943Z,16.80
2023-02-15T13:37:43.330Z,15.85
2023-02-15T13:40:16.306Z,16.73
2023-02-15T13:42:47.155Z,16.15
2023-02-15T13:45:28.812Z,15.85
2023-02-15T13:48:02.480Z,16.52
2023-02-15T13:50:45.984Z,17.00
2023-02-15T13:53:24.542Z,15.95
2023-02-15T13:55:54.072Z,16.27
2023-02-15T13:58:39.165Z,16.52
2023-02-15T14:01:11.589Z,15.93
2023-02-15T14:03:52.887Z,15.80
2023-02-15T14:06:34.599Z,16.13
2023-02-15T14:09:13.735Z,15.93
2023-02-15T14:11:49.363Z,15.63
2023-02-15T14:14:26.548Z,16.23
2023-02-15T14:17:06.763Z,16.33
2023-02-15T14:19:42.285Z,16.35
2023-02-15T14:22:16.871Z,15.80
2023-02-15T14:24:49.035Z,15.85
2023-02-15T14:27:23.710Z,15.23
2023-02-15T14:29:54.275Z,15.95
2023-02-15T14:32:28.858Z,14.32
2023-02-15T14:34:59.913Z,15.53
2023-02-15T14:37:38.552Z,15.30
2023-02-15T14:40:27.803Z,15.85
2023-02-15T14:42:59.501Z,15.88
2023-02-15T14:45:33.775Z,15.63
2023-02-15T14:48:07.612Z,14.60
2023-02-15T14:50:45.110Z,15.68
2023-02-15T14:53:26.940Z,15.07
2023-02-15T14:56:19.152Z,15.82
2023-02-15T14:59:01.917Z,15.13
2023-02-15T15:01:31.228Z,15.05
2023-02-15T15:04:01.668Z,14.93
2023-02-15T15:06:33.343Z,15.95
2023-02-15T15:09:02.899Z,15.52
2023-02-15T15:11:44.657Z,14.60
2023-02-15T15:14:39.005Z,15.48
2023-02-15T15:17:07.578Z,16.05
2023-02-15T15:20:00.913Z,16.20
2023-02-15T15:22:31.316Z,15.37
2023-02-15T15:24:59.784Z,15.33
2023-02-15T15:27:43.927Z,15.00
2023-02-15T15:30:49.494Z,16.23
2023-02-15T15:33:33.448Z,16.25
2023-02-15T15:36:17.414Z,15.95
2023-02-15T15:38:55.212Z,16.85
2023-02-15T15:41:34.435Z,15.27
2023-02-15T15:44:27.082Z,15.77
2023-02-15T15:47:18.907Z,17.45
2023-02-15T15:49:46.589Z,16.02
2023-02-15T15:52:17.391Z,16.48
2023-02-15T15:54:48.499Z,16.45
2023-02-15T15:57:20.248Z,16.92
2023-02-15T15:59:48.599Z,16.65
2023-02-15T16:02:18.683Z,16.90
2023-02-15T16:04:49.193Z,17.42
2023-02-15T16:07:26.677Z,17.85
2023-02-15T16:10:00.873Z,17.10
2023-02-15T16:12:29.891Z,17.52
2023-02-15T16:14:58.234Z,16.55
2023-02-15T16:17:29.109Z,16.92
2023-02-15T16:20:02.357Z,17.17
2023-02-15T16:22:30.073Z,16.98
2023-02-15T16:25:21.468Z,16.20
2023-02-15T16:27:49.730Z,15.85
2023-02-15T16:30:26.289Z,16.90
2023-02-15T16:33:05.051Z,16.20
2023-02-15T16:35:33.077Z,17.35
2023-02-15T16:38:01.013Z,17.27
2023-02-15T16:40:42.956Z,17.02
2023-02-15T16:43:17.016Z,15.60
2023-02-15T16:45:44.700Z,16.30
2023-02-15T16:48:16.979Z,15.10
2023-02-15T16:50:49.797Z,15.27
2023-02-15T16:53:21.897Z,16.85
2023-02-15T16:55:53.983Z,18.65
2023-02-15T16:58:27.546Z,17.40
2023-02-15T17:00:58.163Z,18.55
2023-02-15T17:03:26.890Z,16.58
2023-02-15T17:05:56.843Z,15.65
2023-02-15T17:08:29.982Z,17.70
2023-02-15T17:11:15.299Z,16.73
2023-02-15T17:14:15.201Z,16.70
2023-02-15T17:16:45.541Z,16.55
2023-02-15T17:19:17.502Z,17.20
2023-02-15T17:21:50.526Z,16.55
2023-02-15T17:24:19.944Z,15.07
2023-02-15T17:26:53.031Z,14.57
2023-02-15T17:29:27.945Z,14.82
2023-02-15T17:31:58.486Z,13.93
2023-02-15T17:34:48.710Z,14.18
2023-02-15T17:37:26.307Z,14.25
2023-02-15T17:39:54.360Z,12.95
2023-02-15T17:42:23.380Z,12.23
2023-02-15T17:44:51.260Z,13.25
2023-02-15T17:47:20.771Z,12.97
2023-02-15T17:49:51.934Z,12.65
2023-02-15T17:52:19.781Z,12.52
2023-02-15T17:55:04.995Z,11.97
2023-02-15T17:57:34.430Z,12.23
2023-02-15T18:00:19.690Z,12.00
2023-02-15T18:03:05.552Z,11.38
2023-02-15T18:05:51.006Z,13.13
2023-02-15T18:08:37.488Z,12.75
2023-02-15T18:11:22.849Z,12.55
2023-02-15T18:13:51.948Z,12.80
2023-02-15T18:16:24.550Z,13.13
2023-02-15T18:18:52.209Z,12.63
2023-02-15T18:21:20.318Z,12.43
2023-02-15T18:23:47.969Z,12.48
2023-02-15T18:26:19.926Z,13.20
2023-02-15T18:28:47.722Z,13.30
2023-02-15T18:31:17.306Z,13.00
2023-02-15T18:33:48.169Z,12.63
2023-02-15T18:36:19.112Z,12.23
2023-02-15T18:38:46.791Z,12.32
2023-02-15T18:41:18.936Z,13.25
2023-02-15T18:43:48.831Z,13.15
2023-02-15T18:46:18.644Z,13.55
2023-02-15T18:48:47.604Z,13.77
2023-02-15T18:51:19.287Z,12.82
2023-02-15T18:53:48.040Z,13.02
2023-02-15T18:56:20.314Z,13.63
2023-02-15T18:58:49.271Z,12.27
2023-02-15T19:01:20.420Z,13.32
2023-02-15T19:03:49.158Z,12.57
2023-02-15T19:06:18.988Z,13.60
2023-02-15T19:08:49.076Z,13.65
2023-02-15T19:11:18.796Z,13.93
2023-02-15T19:13:49.034Z,13.48
2023-02-15T19:16:30.643Z,12.77
2023-02-15T19:18:59.122Z,14.00
2023-02-15T19:21:28.568Z,13.05
2023-02-15T19:23:59.229Z,14.85
2023-02-15T19:26:44.561Z,13.40
2023-02-15T19:29:14.004Z,13.52
2023-02-15T19:31:43.580Z,13.88
2023-02-15T19:34:14.801Z,13.93
2023-02-15T19:36:42.822Z,14.80
2023-02-15T19:39:23.953Z,14.80
2023-02-15T19:41:51.782Z,14.80
2023-02-15T19:44:19.967Z,15.52
2023-02-15T19:46:49.088Z,15.32
2023-02-15T19:49:17.025Z,14.20
2023-02-15T19:51:44.926Z,14.43
2023-02-15T19:54:21.952Z,14.50
2023-02-15T19:56:49.793Z,14.02
2023-02-15T19:59:24.133Z,14.70
2023-02-15T20:01:53.834Z,16.40
2023-02-15T20:04:21.848Z,15.93
2023-02-15T20:06:50.832Z,15.02
2023-02-15T20:09:24.055Z,15.80
2023-02-15T20:11:52.316Z,16.45
2023-02-15T20:14:20.634Z,16.17
2023-02-15T20:16:48.295Z,16.27
2023-02-15T20:19:17.747Z,16.48
2023-02-15T20:21:47.093Z,16.58
2023-02-15T20:24:16.829Z,16.42
2023-02-15T20:26:45.110Z,16.85
2023-02-15T20:29:15.173Z,16.48
2023-02-15T20:31:43.216Z,15.98
2023-02-15T20:34:11.120Z,16.73
2023-02-15T20:36:41.042Z,15.23
2023-02-15T20:39:15.260Z,15.80
2023-02-15T20:41:47.700Z,16.15
2023-02-15T20:44:21.877Z,15.82
2023-02-15T20:46:50.373Z,15.48
2023-02-15T20:49:18.124Z,15.32
2023-02-15T20:51:48.106Z,16.43
2023-02-15T20:54:17.820Z,16.05
2023-02-15T20:56:45.560Z,15.73
2023-02-15T20:59:23.463Z,15.43
2023-02-15T21:01:52.110Z,14.65
2023-02-15T21:04:29.306Z,16.08
2023-02-15T21:06:58.754Z,15.77
2023-02-15T21:09:26.441Z,15.13
2023-02-15T21:11:56.183Z,14.55
2023-02-15T21:14:25.371Z,15.25
2023-02-15T21:16:53.051Z,15.00
2023-02-15T21:19:22.554Z,14.33
2023-02-15T21:21:52.494Z,14.18
2023-02-15T21:24:24.882Z,14.23
2023-02-15T21:26:53.276Z,14.77
2023-02-15T21:29:22.079Z,14.77
2023-02-15T21:31:50.141Z,14.45
2023-02-15T21:34:19.450Z,14.48
2023-02-15T21:36:48.898Z,14.55
2023-02-15T21:39:19.316Z,14.70
2023-02-15T21:42:07.641Z,14.82
2023-02-15T21:44:52.948Z,14.52
2023-02-15T21:47:39.821Z,14.70
2023-02-15T21:50:23.282Z,14.48
2023-02-15T21:52:51.193Z,15.10
2023-02-15T21:55:19.149Z,15.05
2023-02-15T21:57:48.481Z,14.98
2023-02-15T22:00:18.412Z,14.88
2023-02-15T22:02:47.548Z,14.50
2023-02-15T22:05:18.074Z,15.23
2023-02-15T22:07:45.832Z,15.02
2023-02-15T22:10:13.703Z,14.95
2023-02-15T22:12:43.371Z,14.88
2023-02-15T22:15:20.312Z,15.02
2023-02-15T22:17:48.330Z,15.95
2023-02-15T22:20:17.908Z,14.70
2023-02-15T22:22:45.996Z,15.90
2023-02-15T22:25:16.134Z,14.57
2023-02-15T22:27:44.603Z,15.68
2023-02-15T22:30:22.963Z,14.60
2023-02-15T22:32:51.108Z,16.40
2023-02-15T22:35:20.644Z,14.90
2023-02-15T22:37:48.345Z,16.00
2023-02-15T22:40:17.237Z,15.93
2023-02-15T22:42:47.090Z,15.30
2023-02-15T22:45:19.991Z,16.08
2023-02-15T22:47:48.612Z,15.77
2023-02-15T22:50:18.952Z,15.90
2023-02-15T22:52:47.012Z,16.43
2023-02-15T22:55:16.483Z,16.45
2023-02-15T22:57:45.372Z,16.50
2023-02-15T23:00:18.343Z,15.87
2023-02-15T23:02:47.928Z,16.00
2023-02-15T23:05:19.709Z,15.93
2023-02-15T23:07:48.470Z,15.80
2023-02-15T23:10:22.206Z,16.45
2023-02-15T23:13:08.393Z,15.47
2023-02-15T23:15:37.107Z,15.97
2023-02-15T23:18:17.128Z,15.88
2023-02-15T23:20:45.585Z,15.05
2023-02-15T23:23:14.883Z,16.85
2023-02-15T23:25:43.168Z,16.77
2023-02-15T23:28:20.103Z,16.27
2023-02-15T23:30:48.551Z,16.83
2023-02-15T23:33:20.864Z,16.17
2023-02-15T23:35:48.638Z,16.50
2023-02-15T23:38:21.895Z,16.25
2023-02-15T23:41:10.448Z,16.88
2023-02-15T23:43:38.738Z,16.50
2023-02-15T23:46:08.105Z,16.35
2023-02-15T23:48:39.030Z,16.38
2023-02-15T23:51:11.485Z,15.70
2023-02-15T23:53:39.496Z,17.15
2023-02-15T23:56:07.726Z,16.08
2023-02-15T23:58:37.581Z,16.95
